sensor_id;sensor_type;location;lat;lon;timestamp;P1;durP1;ratioP1;P2;durP2;ratioP2
10126;SDS011;13080;42.608;23.362;2024-03-06T00:01:57;19.42;;;6.57;;
10126;SDS011;13080;42.608;23.362;2024-03-06T00:04:24;15.10;;;7.43;;
10126;SDS011;13080;42.608;23.362;2024-03-06T00:06:51;14.40;;;7.03;;
10126;SDS011;13080;42.608;23.362;2024-03-06T00:09:20;12.68;;;7.30;;
10126;SDS011;13080;42.608;23.362;2024-03-06T00:11:47;12.82;;;6.75;;
10126;SDS011;13080;42.608;23.362;2024-03-06T00:14:16;16.85;;;7.07;;
10126;SDS011;13080;42.608;23.362;2024-03-06T00:16:44;15.23;;;7.63;;
10126;SDS011;13080;42.608;23.362;2024-03-06T00:19:11;12.90;;;6.90;;
10126;SDS011;13080;42.608;23.362;2024-03-06T00:21:38;15.68;;;7.93;;
10126;SDS011;13080;42.608;23.362;2024-03-06T00:24:06;18.17;;;8.13;;
10126;SDS011;13080;42.608;23.362;2024-03-06T00:26:33;16.02;;;8.20;;
10126;SDS011;13080;42.608;23.362;2024-03-06T00:29:00;16.42;;;7.63;;
10126;SDS011;13080;42.608;23.362;2024-03-06T00:31:27;15.75;;;7.00;;
10126;SDS011;13080;42.608;23.362;2024-03-06T00:33:55;22.55;;;10.20;;
10126;SDS011;13080;42.608;23.362;2024-03-06T00:36:22;15.82;;;8.60;;
10126;SDS011;13080;42.608;23.362;2024-03-06T00:38:49;17.02;;;7.03;;
10126;SDS011;13080;42.608;23.362;2024-03-06T00:41:16;14.77;;;7.30;;
10126;SDS011;13080;42.608;23.362;2024-03-06T00:43:44;17.10;;;7.72;;
10126;SDS011;13080;42.608;23.362;2024-03-06T00:46:11;17.75;;;8.48;;
10126;SDS011;13080;42.608;23.362;2024-03-06T00:48:38;17.50;;;8.57;;
10126;SDS011;13080;42.608;23.362;2024-03-06T00:51:06;15.77;;;7.40;;
10126;SDS011;13080;42.608;23.362;2024-03-06T00:53:34;14.30;;;7.63;;
10126;SDS011;13080;42.608;23.362;2024-03-06T00:56:01;16.70;;;8.50;;
10126;SDS011;13080;42.608;23.362;2024-03-06T00:58:28;16.80;;;8.52;;
10126;SDS011;13080;42.608;23.362;2024-03-06T01:00:55;27.70;;;10.95;;
10126;SDS011;13080;42.608;23.362;2024-03-06T01:03:23;22.73;;;11.55;;
10126;SDS011;13080;42.608;23.362;2024-03-06T01:05:50;21.13;;;12.38;;
10126;SDS011;13080;42.608;23.362;2024-03-06T01:08:20;23.45;;;10.77;;
10126;SDS011;13080;42.608;23.362;2024-03-06T01:10:49;23.02;;;9.65;;
10126;SDS011;13080;42.608;23.362;2024-03-06T01:13:17;19.58;;;8.23;;
10126;SDS011;13080;42.608;23.362;2024-03-06T01:15:43;14.80;;;7.80;;
10126;SDS011;13080;42.608;23.362;2024-03-06T01:18:10;16.88;;;7.32;;
10126;SDS011;13080;42.608;23.362;2024-03-06T01:20:37;14.93;;;7.05;;
10126;SDS011;13080;42.608;23.362;2024-03-06T01:23:05;17.67;;;9.00;;
10126;SDS011;13080;42.608;23.362;2024-03-06T01:25:33;31.23;;;18.67;;
10126;SDS011;13080;42.608;23.362;2024-03-06T01:28:01;23.77;;;13.48;;
10126;SDS011;13080;42.608;23.362;2024-03-06T01:30:29;21.42;;;11.05;;
10126;SDS011;13080;42.608;23.362;2024-03-06T01:32:56;27.58;;;18.48;;
10126;SDS011;13080;42.608;23.362;2024-03-06T01:35:23;17.83;;;10.48;;
10126;SDS011;13080;42.608;23.362;2024-03-06T01:37:50;12.50;;;6.18;;
10126;SDS011;13080;42.608;23.362;2024-03-06T01:40:17;20.02;;;8.02;;
10126;SDS011;13080;42.608;23.362;2024-03-06T01:42:47;19.95;;;8.93;;
10126;SDS011;13080;42.608;23.362;2024-03-06T01:45:14;17.15;;;7.45;;
10126;SDS011;13080;42.608;23.362;2024-03-06T01:47:42;15.15;;;7.13;;
10126;SDS011;13080;42.608;23.362;2024-03-06T01:50:09;14.75;;;8.00;;
10126;SDS011;13080;42.608;23.362;2024-03-06T01:52:37;18.63;;;8.13;;
10126;SDS011;13080;42.608;23.362;2024-03-06T01:55:06;18.20;;;8.65;;
10126;SDS011;13080;42.608;23.362;2024-03-06T01:57:34;16.48;;;7.85;;
10126;SDS011;13080;42.608;23.362;2024-03-06T02:00:04;31.17;;;14.35;;
10126;SDS011;13080;42.608;23.362;2024-03-06T02:02:38;15.13;;;7.82;;
10126;SDS011;13080;42.608;23.362;2024-03-06T02:05:06;16.95;;;7.53;;
10126;SDS011;13080;42.608;23.362;2024-03-06T02:07:33;17.42;;;7.85;;
10126;SDS011;13080;42.608;23.362;2024-03-06T02:10:02;17.80;;;9.23;;
10126;SDS011;13080;42.608;23.362;2024-03-06T02:12:32;19.70;;;10.02;;
10126;SDS011;13080;42.608;23.362;2024-03-06T02:14:59;14.02;;;7.93;;
10126;SDS011;13080;42.608;23.362;2024-03-06T02:17:29;16.08;;;6.72;;
10126;SDS011;13080;42.608;23.362;2024-03-06T02:19:56;16.38;;;7.18;;
10126;SDS011;13080;42.608;23.362;2024-03-06T02:22:25;17.88;;;6.75;;
10126;SDS011;13080;42.608;23.362;2024-03-06T02:24:52;12.48;;;7.05;;
10126;SDS011;13080;42.608;23.362;2024-03-06T02:27:19;15.98;;;7.13;;
10126;SDS011;13080;42.608;23.362;2024-03-06T02:29:46;11.40;;;6.32;;
10126;SDS011;13080;42.608;23.362;2024-03-06T02:32:13;14.38;;;6.40;;
10126;SDS011;13080;42.608;23.362;2024-03-06T02:34:42;14.07;;;6.03;;
10126;SDS011;13080;42.608;23.362;2024-03-06T02:37:09;12.95;;;6.63;;
10126;SDS011;13080;42.608;23.362;2024-03-06T02:39:37;37.80;;;19.02;;
10126;SDS011;13080;42.608;23.362;2024-03-06T02:42:04;20.13;;;13.52;;
10126;SDS011;13080;42.608;23.362;2024-03-06T02:44:32;18.88;;;12.48;;
10126;SDS011;13080;42.608;23.362;2024-03-06T02:46:59;17.77;;;9.75;;
10126;SDS011;13080;42.608;23.362;2024-03-06T02:49:26;14.00;;;7.07;;
10126;SDS011;13080;42.608;23.362;2024-03-06T02:51:53;16.42;;;10.27;;
10126;SDS011;13080;42.608;23.362;2024-03-06T02:54:19;15.63;;;6.63;;
10126;SDS011;13080;42.608;23.362;2024-03-06T02:56:48;11.88;;;6.22;;
10126;SDS011;13080;42.608;23.362;2024-03-06T02:59:17;12.90;;;6.57;;
10126;SDS011;13080;42.608;23.362;2024-03-06T03:01:44;12.90;;;6.38;;
10126;SDS011;13080;42.608;23.362;2024-03-06T03:04:11;16.05;;;6.82;;
10126;SDS011;13080;42.608;23.362;2024-03-06T03:06:38;13.65;;;7.53;;
10126;SDS011;13080;42.608;23.362;2024-03-06T03:09:04;13.60;;;8.73;;
10126;SDS011;13080;42.608;23.362;2024-03-06T03:11:31;18.77;;;9.95;;
10126;SDS011;13080;42.608;23.362;2024-03-06T03:14:00;27.60;;;13.57;;
10126;SDS011;13080;42.608;23.362;2024-03-06T03:16:27;23.83;;;12.52;;
10126;SDS011;13080;42.608;23.362;2024-03-06T03:18:55;18.23;;;8.35;;
10126;SDS011;13080;42.608;23.362;2024-03-06T03:21:22;21.75;;;9.13;;
10126;SDS011;13080;42.608;23.362;2024-03-06T03:23:49;21.25;;;8.77;;
10126;SDS011;13080;42.608;23.362;2024-03-06T03:26:16;18.58;;;9.88;;
10126;SDS011;13080;42.608;23.362;2024-03-06T03:28:43;14.25;;;8.30;;
10126;SDS011;13080;42.608;23.362;2024-03-06T03:31:11;16.15;;;8.63;;
10126;SDS011;13080;42.608;23.362;2024-03-06T03:33:38;18.88;;;8.30;;
10126;SDS011;13080;42.608;23.362;2024-03-06T03:36:06;15.18;;;7.47;;
10126;SDS011;13080;42.608;23.362;2024-03-06T03:38:33;16.25;;;6.78;;
10126;SDS011;13080;42.608;23.362;2024-03-06T03:41:03;17.23;;;7.25;;
10126;SDS011;13080;42.608;23.362;2024-03-06T03:43:33;16.90;;;7.75;;
10126;SDS011;13080;42.608;23.362;2024-03-06T03:46:00;14.90;;;7.15;;
10126;SDS011;13080;42.608;23.362;2024-03-06T03:48:29;13.68;;;6.40;;
10126;SDS011;13080;42.608;23.362;2024-03-06T03:50:56;13.45;;;6.85;;
10126;SDS011;13080;42.608;23.362;2024-03-06T03:53:22;11.48;;;6.03;;
10126;SDS011;13080;42.608;23.362;2024-03-06T03:55:49;12.70;;;6.55;;
10126;SDS011;13080;42.608;23.362;2024-03-06T03:58:19;13.93;;;7.30;;
10126;SDS011;13080;42.608;23.362;2024-03-06T04:00:45;18.35;;;8.68;;
10126;SDS011;13080;42.608;23.362;2024-03-06T04:03:12;18.00;;;8.00;;
10126;SDS011;13080;42.608;23.362;2024-03-06T04:05:41;17.27;;;8.73;;
10126;SDS011;13080;42.608;23.362;2024-03-06T04:08:08;16.55;;;8.57;;
10126;SDS011;13080;42.608;23.362;2024-03-06T04:10:34;17.70;;;9.27;;
10126;SDS011;13080;42.608;23.362;2024-03-06T04:13:01;15.23;;;8.07;;
10126;SDS011;13080;42.608;23.362;2024-03-06T04:15:28;19.10;;;8.85;;
10126;SDS011;13080;42.608;23.362;2024-03-06T04:17:56;22.42;;;11.43;;
10126;SDS011;13080;42.608;23.362;2024-03-06T04:20:23;17.20;;;9.00;;
10126;SDS011;13080;42.608;23.362;2024-03-06T04:22:51;14.05;;;6.97;;
10126;SDS011;13080;42.608;23.362;2024-03-06T04:25:18;13.85;;;7.15;;
10126;SDS011;13080;42.608;23.362;2024-03-06T04:27:45;14.30;;;7.15;;
10126;SDS011;13080;42.608;23.362;2024-03-06T04:30:12;14.45;;;7.97;;
10126;SDS011;13080;42.608;23.362;2024-03-06T04:32:39;28.90;;;13.90;;
10126;SDS011;13080;42.608;23.362;2024-03-06T04:35:08;56.80;;;25.27;;
10126;SDS011;13080;42.608;23.362;2024-03-06T04:37:35;20.50;;;9.25;;
10126;SDS011;13080;42.608;23.362;2024-03-06T04:40:04;13.50;;;7.72;;
10126;SDS011;13080;42.608;23.362;2024-03-06T04:42:33;14.63;;;6.90;;
10126;SDS011;13080;42.608;23.362;2024-03-06T04:45:01;13.90;;;7.30;;
10126;SDS011;13080;42.608;23.362;2024-03-06T04:47:29;29.20;;;14.82;;
10126;SDS011;13080;42.608;23.362;2024-03-06T04:49:56;23.38;;;13.65;;
10126;SDS011;13080;42.608;23.362;2024-03-06T04:52:24;27.20;;;14.73;;
10126;SDS011;13080;42.608;23.362;2024-03-06T04:54:51;20.27;;;12.57;;
10126;SDS011;13080;42.608;23.362;2024-03-06T04:57:19;21.25;;;11.13;;
10126;SDS011;13080;42.608;23.362;2024-03-06T04:59:46;16.02;;;8.93;;
10126;SDS011;13080;42.608;23.362;2024-03-06T05:02:14;24.35;;;10.43;;
10126;SDS011;13080;42.608;23.362;2024-03-06T05:04:41;25.00;;;10.20;;
10126;SDS011;13080;42.608;23.362;2024-03-06T05:07:08;14.63;;;8.65;;
10126;SDS011;13080;42.608;23.362;2024-03-06T05:09:35;20.63;;;9.10;;
10126;SDS011;13080;42.608;23.362;2024-03-06T05:12:02;14.80;;;8.02;;
10126;SDS011;13080;42.608;23.362;2024-03-06T05:14:32;22.25;;;10.23;;
10126;SDS011;13080;42.608;23.362;2024-03-06T05:16:58;19.25;;;9.60;;
10126;SDS011;13080;42.608;23.362;2024-03-06T05:19:25;20.52;;;10.77;;
10126;SDS011;13080;42.608;23.362;2024-03-06T05:21:57;16.60;;;8.05;;
10126;SDS011;13080;42.608;23.362;2024-03-06T05:24:24;18.35;;;9.60;;
10126;SDS011;13080;42.608;23.362;2024-03-06T05:26:51;17.65;;;7.80;;
10126;SDS011;13080;42.608;23.362;2024-03-06T05:29:18;18.52;;;9.02;;
10126;SDS011;13080;42.608;23.362;2024-03-06T05:31:46;23.27;;;10.25;;
10126;SDS011;13080;42.608;23.362;2024-03-06T05:34:13;25.08;;;10.00;;
10126;SDS011;13080;42.608;23.362;2024-03-06T05:36:40;19.63;;;8.98;;
10126;SDS011;13080;42.608;23.362;2024-03-06T05:39:07;21.98;;;9.88;;
10126;SDS011;13080;42.608;23.362;2024-03-06T05:41:37;20.17;;;9.90;;
10126;SDS011;13080;42.608;23.362;2024-03-06T05:44:04;20.83;;;10.13;;
10126;SDS011;13080;42.608;23.362;2024-03-06T05:46:31;21.48;;;10.00;;
10126;SDS011;13080;42.608;23.362;2024-03-06T05:49:00;22.83;;;11.05;;
10126;SDS011;13080;42.608;23.362;2024-03-06T05:51:27;21.88;;;11.07;;
10126;SDS011;13080;42.608;23.362;2024-03-06T05:53:54;21.58;;;11.05;;
10126;SDS011;13080;42.608;23.362;2024-03-06T05:56:21;23.15;;;10.63;;
10126;SDS011;13080;42.608;23.362;2024-03-06T05:58:48;21.48;;;9.82;;
10126;SDS011;13080;42.608;23.362;2024-03-06T06:01:15;37.85;;;15.05;;
10126;SDS011;13080;42.608;23.362;2024-03-06T06:03:45;34.20;;;14.73;;
10126;SDS011;13080;42.608;23.362;2024-03-06T06:06:14;25.70;;;11.88;;
10126;SDS011;13080;42.608;23.362;2024-03-06T06:08:41;19.90;;;9.38;;
10126;SDS011;13080;42.608;23.362;2024-03-06T06:11:09;19.90;;;10.45;;
10126;SDS011;13080;42.608;23.362;2024-03-06T06:13:36;16.77;;;8.30;;
10126;SDS011;13080;42.608;23.362;2024-03-06T06:16:04;17.58;;;9.20;;
10126;SDS011;13080;42.608;23.362;2024-03-06T06:18:32;17.25;;;9.32;;
10126;SDS011;13080;42.608;23.362;2024-03-06T06:20:59;20.02;;;8.98;;
10126;SDS011;13080;42.608;23.362;2024-03-06T06:23:27;19.23;;;8.65;;
10126;SDS011;13080;42.608;23.362;2024-03-06T06:25:54;21.27;;;10.10;;
10126;SDS011;13080;42.608;23.362;2024-03-06T06:28:22;19.60;;;10.23;;
10126;SDS011;13080;42.608;23.362;2024-03-06T06:30:49;23.23;;;11.13;;
10126;SDS011;13080;42.608;23.362;2024-03-06T06:33:17;27.30;;;12.88;;
10126;SDS011;13080;42.608;23.362;2024-03-06T06:35:45;31.50;;;14.80;;
10126;SDS011;13080;42.608;23.362;2024-03-06T06:38:13;27.83;;;13.93;;
10126;SDS011;13080;42.608;23.362;2024-03-06T06:40:41;35.45;;;13.95;;
10126;SDS011;13080;42.608;23.362;2024-03-06T06:43:08;31.50;;;14.98;;
10126;SDS011;13080;42.608;23.362;2024-03-06T06:45:37;26.13;;;13.82;;
10126;SDS011;13080;42.608;23.362;2024-03-06T06:48:04;29.65;;;14.23;;
10126;SDS011;13080;42.608;23.362;2024-03-06T06:50:31;36.92;;;13.20;;
10126;SDS011;13080;42.608;23.362;2024-03-06T06:52:58;28.52;;;13.88;;
10126;SDS011;13080;42.608;23.362;2024-03-06T06:55:25;24.65;;;12.85;;
10126;SDS011;13080;42.608;23.362;2024-03-06T06:57:54;26.55;;;14.05;;
10126;SDS011;13080;42.608;23.362;2024-03-06T07:00:21;27.52;;;11.98;;
10126;SDS011;13080;42.608;23.362;2024-03-06T07:02:49;27.85;;;12.50;;
10126;SDS011;13080;42.608;23.362;2024-03-06T07:05:17;24.95;;;12.02;;
10126;SDS011;13080;42.608;23.362;2024-03-06T07:07:43;24.00;;;12.85;;
10126;SDS011;13080;42.608;23.362;2024-03-06T07:10:11;24.35;;;12.60;;
10126;SDS011;13080;42.608;23.362;2024-03-06T07:12:37;28.95;;;12.75;;
10126;SDS011;13080;42.608;23.362;2024-03-06T07:15:06;24.33;;;13.05;;
10126;SDS011;13080;42.608;23.362;2024-03-06T07:17:34;23.92;;;13.25;;
10126;SDS011;13080;42.608;23.362;2024-03-06T07:20:00;22.63;;;11.90;;
10126;SDS011;13080;42.608;23.362;2024-03-06T07:22:30;20.88;;;9.77;;
10126;SDS011;13080;42.608;23.362;2024-03-06T07:24:59;20.65;;;11.27;;
10126;SDS011;13080;42.608;23.362;2024-03-06T07:27:26;21.63;;;10.73;;
10126;SDS011;13080;42.608;23.362;2024-03-06T07:29:53;20.60;;;11.30;;
10126;SDS011;13080;42.608;23.362;2024-03-06T07:32:22;22.25;;;10.35;;
10126;SDS011;13080;42.608;23.362;2024-03-06T07:34:49;23.63;;;10.93;;
10126;SDS011;13080;42.608;23.362;2024-03-06T07:37:16;21.05;;;11.32;;
10126;SDS011;13080;42.608;23.362;2024-03-06T07:39:43;23.20;;;11.60;;
10126;SDS011;13080;42.608;23.362;2024-03-06T07:42:10;21.08;;;11.10;;
10126;SDS011;13080;42.608;23.362;2024-03-06T07:44:38;27.25;;;10.80;;
10126;SDS011;13080;42.608;23.362;2024-03-06T07:47:05;24.55;;;12.00;;
10126;SDS011;13080;42.608;23.362;2024-03-06T07:49:34;22.17;;;11.80;;
10126;SDS011;13080;42.608;23.362;2024-03-06T07:52:01;24.02;;;12.88;;
10126;SDS011;13080;42.608;23.362;2024-03-06T07:54:28;25.08;;;11.73;;
10126;SDS011;13080;42.608;23.362;2024-03-06T07:56:55;22.38;;;11.65;;
10126;SDS011;13080;42.608;23.362;2024-03-06T07:59:22;26.02;;;12.02;;
10126;SDS011;13080;42.608;23.362;2024-03-06T08:01:49;24.50;;;12.57;;
10126;SDS011;13080;42.608;23.362;2024-03-06T08:04:17;24.55;;;12.50;;
10126;SDS011;13080;42.608;23.362;2024-03-06T08:06:45;30.15;;;13.15;;
10126;SDS011;13080;42.608;23.362;2024-03-06T08:09:12;25.88;;;12.98;;
10126;SDS011;13080;42.608;23.362;2024-03-06T08:11:41;24.75;;;12.27;;
10126;SDS011;13080;42.608;23.362;2024-03-06T08:14:08;25.02;;;11.52;;
10126;SDS011;13080;42.608;23.362;2024-03-06T08:16:35;21.25;;;11.93;;
10126;SDS011;13080;42.608;23.362;2024-03-06T08:19:02;24.80;;;11.80;;
10126;SDS011;13080;42.608;23.362;2024-03-06T08:21:29;26.65;;;12.70;;
10126;SDS011;13080;42.608;23.362;2024-03-06T08:23:58;30.33;;;12.13;;
10126;SDS011;13080;42.608;23.362;2024-03-06T08:26:24;23.77;;;11.40;;
10126;SDS011;13080;42.608;23.362;2024-03-06T08:28:51;24.35;;;11.65;;
10126;SDS011;13080;42.608;23.362;2024-03-06T08:31:18;18.58;;;10.98;;
10126;SDS011;13080;42.608;23.362;2024-03-06T08:33:46;25.20;;;13.07;;
10126;SDS011;13080;42.608;23.362;2024-03-06T08:36:13;31.05;;;13.82;;
10126;SDS011;13080;42.608;23.362;2024-03-06T08:38:40;26.25;;;12.88;;
10126;SDS011;13080;42.608;23.362;2024-03-06T08:41:08;25.55;;;12.18;;
10126;SDS011;13080;42.608;23.362;2024-03-06T08:43:35;30.02;;;13.48;;
10126;SDS011;13080;42.608;23.362;2024-03-06T08:46:02;24.92;;;12.88;;
10126;SDS011;13080;42.608;23.362;2024-03-06T08:48:30;21.15;;;12.18;;
10126;SDS011;13080;42.608;23.362;2024-03-06T08:50:57;24.52;;;11.15;;
10126;SDS011;13080;42.608;23.362;2024-03-06T08:53:24;26.88;;;12.80;;
10126;SDS011;13080;42.608;23.362;2024-03-06T08:55:51;27.30;;;12.35;;
10126;SDS011;13080;42.608;23.362;2024-03-06T08:58:19;25.13;;;12.60;;
10126;SDS011;13080;42.608;23.362;2024-03-06T09:00:47;26.83;;;12.77;;
10126;SDS011;13080;42.608;23.362;2024-03-06T09:03:14;26.08;;;12.77;;
10126;SDS011;13080;42.608;23.362;2024-03-06T09:05:41;21.95;;;11.70;;
10126;SDS011;13080;42.608;23.362;2024-03-06T09:08:08;23.30;;;11.43;;
10126;SDS011;13080;42.608;23.362;2024-03-06T09:10:36;28.30;;;12.90;;
10126;SDS011;13080;42.608;23.362;2024-03-06T09:13:04;27.90;;;12.93;;
10126;SDS011;13080;42.608;23.362;2024-03-06T09:15:32;25.33;;;12.40;;
10126;SDS011;13080;42.608;23.362;2024-03-06T09:17:59;25.25;;;11.98;;
10126;SDS011;13080;42.608;23.362;2024-03-06T09:20:26;29.55;;;12.77;;
10126;SDS011;13080;42.608;23.362;2024-03-06T09:22:52;24.00;;;12.02;;
10126;SDS011;13080;42.608;23.362;2024-03-06T09:25:22;19.33;;;10.15;;
10126;SDS011;13080;42.608;23.362;2024-03-06T09:27:49;23.13;;;12.32;;
10126;SDS011;13080;42.608;23.362;2024-03-06T09:30:16;23.75;;;10.80;;
10126;SDS011;13080;42.608;23.362;2024-03-06T09:32:44;19.92;;;11.73;;
10126;SDS011;13080;42.608;23.362;2024-03-06T09:35:11;25.48;;;11.77;;
10126;SDS011;13080;42.608;23.362;2024-03-06T09:37:39;22.42;;;10.45;;
10126;SDS011;13080;42.608;23.362;2024-03-06T09:40:08;20.30;;;11.48;;
10126;SDS011;13080;42.608;23.362;2024-03-06T09:42:36;23.77;;;12.18;;
10126;SDS011;13080;42.608;23.362;2024-03-06T09:45:04;19.70;;;12.80;;
10126;SDS011;13080;42.608;23.362;2024-03-06T09:47:32;26.20;;;12.68;;
10126;SDS011;13080;42.608;23.362;2024-03-06T09:50:03;23.63;;;12.73;;
10126;SDS011;13080;42.608;23.362;2024-03-06T09:52:36;23.63;;;12.27;;
10126;SDS011;13080;42.608;23.362;2024-03-06T09:55:03;22.20;;;12.55;;
10126;SDS011;13080;42.608;23.362;2024-03-06T09:57:35;23.90;;;11.05;;
10126;SDS011;13080;42.608;23.362;2024-03-06T10:00:02;23.35;;;11.18;;
10126;SDS011;13080;42.608;23.362;2024-03-06T10:02:34;21.38;;;11.02;;
10126;SDS011;13080;42.608;23.362;2024-03-06T10:05:06;19.08;;;10.48;;
10126;SDS011;13080;42.608;23.362;2024-03-06T10:07:47;25.10;;;10.57;;
10126;SDS011;13080;42.608;23.362;2024-03-06T10:10:16;18.60;;;10.90;;
10126;SDS011;13080;42.608;23.362;2024-03-06T10:12:44;12.98;;;7.63;;
10126;SDS011;13080;42.608;23.362;2024-03-06T10:15:13;15.95;;;9.32;;
10126;SDS011;13080;42.608;23.362;2024-03-06T10:17:40;18.83;;;10.13;;
10126;SDS011;13080;42.608;23.362;2024-03-06T10:20:21;23.92;;;10.13;;
10126;SDS011;13080;42.608;23.362;2024-03-06T10:22:50;26.02;;;11.02;;
10126;SDS011;13080;42.608;23.362;2024-03-06T10:25:18;23.85;;;11.80;;
10126;SDS011;13080;42.608;23.362;2024-03-06T10:27:47;19.92;;;10.63;;
10126;SDS011;13080;42.608;23.362;2024-03-06T10:30:33;22.30;;;12.10;;
10126;SDS011;13080;42.608;23.362;2024-03-06T10:33:02;17.65;;;9.93;;
10126;SDS011;13080;42.608;23.362;2024-03-06T10:35:31;16.55;;;9.43;;
10126;SDS011;13080;42.608;23.362;2024-03-06T10:37:58;22.35;;;11.63;;
10126;SDS011;13080;42.608;23.362;2024-03-06T10:40:27;22.63;;;10.43;;
10126;SDS011;13080;42.608;23.362;2024-03-06T10:42:58;19.58;;;9.23;;
10126;SDS011;13080;42.608;23.362;2024-03-06T10:45:28;16.70;;;8.98;;
10126;SDS011;13080;42.608;23.362;2024-03-06T10:50:32;14.80;;;8.68;;
10126;SDS011;13080;42.608;23.362;2024-03-06T10:53:00;17.88;;;8.35;;
10126;SDS011;13080;42.608;23.362;2024-03-06T10:55:28;13.75;;;8.30;;
10126;SDS011;13080;42.608;23.362;2024-03-06T10:57:59;15.50;;;8.20;;
10126;SDS011;13080;42.608;23.362;2024-03-06T11:00:27;18.70;;;8.63;;
10126;SDS011;13080;42.608;23.362;2024-03-06T11:02:54;18.35;;;7.93;;
10126;SDS011;13080;42.608;23.362;2024-03-06T11:05:23;20.08;;;10.02;;
10126;SDS011;13080;42.608;23.362;2024-03-06T11:07:52;17.67;;;10.50;;
10126;SDS011;13080;42.608;23.362;2024-03-06T11:10:29;18.50;;;9.35;;
10126;SDS011;13080;42.608;23.362;2024-03-06T11:12:57;19.70;;;8.80;;
10126;SDS011;13080;42.608;23.362;2024-03-06T11:15:24;20.25;;;8.52;;
10126;SDS011;13080;42.608;23.362;2024-03-06T11:17:51;15.77;;;8.65;;
10126;SDS011;13080;42.608;23.362;2024-03-06T11:20:20;19.23;;;8.52;;
10126;SDS011;13080;42.608;23.362;2024-03-06T11:23:04;15.48;;;8.57;;
10126;SDS011;13080;42.608;23.362;2024-03-06T11:28:28;17.60;;;8.40;;
10126;SDS011;13080;42.608;23.362;2024-03-06T11:30:56;20.10;;;8.32;;
10126;SDS011;13080;42.608;23.362;2024-03-06T11:33:28;15.27;;;7.03;;
10126;SDS011;13080;42.608;23.362;2024-03-06T11:36:15;15.85;;;7.65;;
10126;SDS011;13080;42.608;23.362;2024-03-06T11:38:48;16.15;;;7.05;;
10126;SDS011;13080;42.608;23.362;2024-03-06T11:41:19;15.75;;;7.05;;
10126;SDS011;13080;42.608;23.362;2024-03-06T11:43:48;11.30;;;6.57;;
10126;SDS011;13080;42.608;23.362;2024-03-06T11:46:18;11.27;;;6.57;;
10126;SDS011;13080;42.608;23.362;2024-03-06T11:48:51;13.52;;;6.07;;
10126;SDS011;13080;42.608;23.362;2024-03-06T11:51:19;10.98;;;6.57;;
10126;SDS011;13080;42.608;23.362;2024-03-06T11:53:48;11.07;;;6.60;;
10126;SDS011;13080;42.608;23.362;2024-03-06T11:56:16;12.38;;;6.32;;
10126;SDS011;13080;42.608;23.362;2024-03-06T11:58:44;10.95;;;6.05;;
10126;SDS011;13080;42.608;23.362;2024-03-06T12:01:12;9.20;;;5.40;;
10126;SDS011;13080;42.608;23.362;2024-03-06T12:03:39;11.40;;;6.13;;
10126;SDS011;13080;42.608;23.362;2024-03-06T12:06:07;15.32;;;6.13;;
10126;SDS011;13080;42.608;23.362;2024-03-06T12:08:34;15.65;;;7.13;;
10126;SDS011;13080;42.608;23.362;2024-03-06T12:11:04;11.60;;;6.10;;
10126;SDS011;13080;42.608;23.362;2024-03-06T12:13:32;12.55;;;6.53;;
10126;SDS011;13080;42.608;23.362;2024-03-06T12:16:03;11.60;;;5.78;;
10126;SDS011;13080;42.608;23.362;2024-03-06T12:18:31;10.57;;;6.10;;
10126;SDS011;13080;42.608;23.362;2024-03-06T12:21:00;11.73;;;6.75;;
10126;SDS011;13080;42.608;23.362;2024-03-06T12:23:28;10.23;;;6.35;;
10126;SDS011;13080;42.608;23.362;2024-03-06T12:26:06;13.35;;;6.72;;
10126;SDS011;13080;42.608;23.362;2024-03-06T12:28:35;14.23;;;7.32;;
10126;SDS011;13080;42.608;23.362;2024-03-06T12:31:04;12.52;;;6.68;;
10126;SDS011;13080;42.608;23.362;2024-03-06T12:33:33;11.40;;;6.40;;
10126;SDS011;13080;42.608;23.362;2024-03-06T12:36:01;12.52;;;6.43;;
10126;SDS011;13080;42.608;23.362;2024-03-06T12:38:29;9.90;;;5.97;;
10126;SDS011;13080;42.608;23.362;2024-03-06T12:40:56;12.35;;;6.40;;
10126;SDS011;13080;42.608;23.362;2024-03-06T12:43:26;16.10;;;7.60;;
10126;SDS011;13080;42.608;23.362;2024-03-06T12:45:53;13.50;;;6.82;;
10126;SDS011;13080;42.608;23.362;2024-03-06T12:48:22;11.32;;;6.18;;
10126;SDS011;13080;42.608;23.362;2024-03-06T12:50:51;13.18;;;6.30;;
10126;SDS011;13080;42.608;23.362;2024-03-06T12:53:19;21.58;;;6.18;;
10126;SDS011;13080;42.608;23.362;2024-03-06T12:55:47;15.85;;;6.13;;
10126;SDS011;13080;42.608;23.362;2024-03-06T12:58:15;11.48;;;6.15;;
10126;SDS011;13080;42.608;23.362;2024-03-06T13:00:43;9.13;;;5.40;;
10126;SDS011;13080;42.608;23.362;2024-03-06T13:03:10;10.52;;;5.47;;
10126;SDS011;13080;42.608;23.362;2024-03-06T13:05:37;10.60;;;6.00;;
10126;SDS011;13080;42.608;23.362;2024-03-06T13:08:04;9.20;;;5.28;;
10126;SDS011;13080;42.608;23.362;2024-03-06T13:10:31;9.77;;;4.90;;
10126;SDS011;13080;42.608;23.362;2024-03-06T13:12:58;11.88;;;4.93;;
10126;SDS011;13080;42.608;23.362;2024-03-06T13:15:25;10.80;;;4.20;;
10126;SDS011;13080;42.608;23.362;2024-03-06T13:17:53;7.18;;;3.80;;
10126;SDS011;13080;42.608;23.362;2024-03-06T13:20:21;11.50;;;4.70;;
10126;SDS011;13080;42.608;23.362;2024-03-06T13:22:48;8.30;;;4.15;;
10126;SDS011;13080;42.608;23.362;2024-03-06T13:25:15;11.98;;;5.07;;
10126;SDS011;13080;42.608;23.362;2024-03-06T13:27:42;10.45;;;4.95;;
10126;SDS011;13080;42.608;23.362;2024-03-06T13:30:09;12.30;;;5.43;;
10126;SDS011;13080;42.608;23.362;2024-03-06T13:32:37;8.43;;;4.82;;
10126;SDS011;13080;42.608;23.362;2024-03-06T13:35:06;11.18;;;4.57;;
10126;SDS011;13080;42.608;23.362;2024-03-06T13:37:37;10.43;;;5.13;;
10126;SDS011;13080;42.608;23.362;2024-03-06T13:40:04;9.85;;;4.35;;
10126;SDS011;13080;42.608;23.362;2024-03-06T13:42:32;9.68;;;4.40;;
10126;SDS011;13080;42.608;23.362;2024-03-06T13:44:59;6.95;;;4.85;;
10126;SDS011;13080;42.608;23.362;2024-03-06T13:47:26;9.82;;;4.50;;
10126;SDS011;13080;42.608;23.362;2024-03-06T13:49:53;8.15;;;4.22;;
10126;SDS011;13080;42.608;23.362;2024-03-06T13:52:22;9.55;;;5.20;;
10126;SDS011;13080;42.608;23.362;2024-03-06T13:54:49;11.27;;;4.50;;
10126;SDS011;13080;42.608;23.362;2024-03-06T13:57:16;8.32;;;5.53;;
10126;SDS011;13080;42.608;23.362;2024-03-06T13:59:43;6.90;;;4.22;;
10126;SDS011;13080;42.608;23.362;2024-03-06T14:02:09;7.28;;;4.38;;
10126;SDS011;13080;42.608;23.362;2024-03-06T14:04:36;11.15;;;4.28;;
10126;SDS011;13080;42.608;23.362;2024-03-06T14:07:03;8.57;;;5.07;;
10126;SDS011;13080;42.608;23.362;2024-03-06T14:09:32;7.85;;;4.70;;
10126;SDS011;13080;42.608;23.362;2024-03-06T14:11:59;10.20;;;4.80;;
10126;SDS011;13080;42.608;23.362;2024-03-06T14:14:26;8.10;;;4.60;;
10126;SDS011;13080;42.608;23.362;2024-03-06T14:16:53;9.20;;;4.45;;
10126;SDS011;13080;42.608;23.362;2024-03-06T14:19:20;6.65;;;4.25;;
10126;SDS011;13080;42.608;23.362;2024-03-06T14:21:47;10.63;;;4.78;;
10126;SDS011;13080;42.608;23.362;2024-03-06T14:24:14;6.78;;;4.20;;
10126;SDS011;13080;42.608;23.362;2024-03-06T14:26:43;8.45;;;3.85;;